sensor_id;sensor_type;location;lat;lon;timestamp;pressure;altitude;pressure_sealevel;temperature;humidity
54856;BME280;40748;53.168;5.800;2022-11-04T00:01:02;99729.63;;;12.06;90.90
54856;BME280;40748;53.168;5.800;2022-11-04T00:03:32;99744.45;;;12.00;90.57
54856;BME280;40748;53.168;5.800;2022-11-04T00:06:02;99750.76000000001;;;12.01;90.68
54856;BME280;40748;53.168;5.800;2022-11-04T00:08:32;99753.83;;;11.98;90.68
54856;BME280;40748;53.168;5.800;2022-11-04T00:11:02;99751.22;;;12.04;90.75
54856;BME280;40748;53.168;5.800;2022-11-04T00:13:32;99747.63;;;11.98;90.28
54856;BME280;40748;53.168;5.800;2022-11-04T00:16:02;99750.78;;;12.02;90.49
54856;BME280;40748;53.168;5.800;2022-11-04T00:21:02;99736.08;;;12.00;89.94
54856;BME280;40748;53.168;5.800;2022-11-04T00:23:32;99727.92;;;11.95;89.95
54856;BME280;40748;53.168;5.800;2022-11-04T00:26:02;99744.16;;;11.92;90.09
54856;BME280;40748;53.168;5.800;2022-11-04T00:28:32;99742.72;;;11.96;90.27
54856;BME280;40748;53.168;5.800;2022-11-04T00:31:03;99756.8;;;11.95;90.04
54856;BME280;40748;53.168;5.800;2022-11-04T00:33:32;99786.25;;;11.93;90.06
54856;BME280;40748;53.168;5.800;2022-11-04T00:36:02;99786.25;;;11.91;90.06
54856;BME280;40748;53.168;5.800;2022-11-04T00:38:32;99797.93;;;11.78;90.11
54856;BME280;40748;53.168;5.800;2022-11-04T00:41:02;99795.87;;;11.74;90.80
54856;BME280;40748;53.168;5.800;2022-11-04T00:43:32;99796.88;;;11.79;91.25
54856;BME280;40748;53.168;5.800;2022-11-04T00:46:02;99797.62;;;11.77;91.00
54856;BME280;40748;53.168;5.800;2022-11-04T00:48:32;99802.86;;;11.74;91.13
54856;BME280;40748;53.168;5.800;2022-11-04T00:51:02;99809.77;;;11.69;91.34
54856;BME280;40748;53.168;5.800;2022-11-04T00:53:32;99813.76000000001;;;11.81;92.04
54856;BME280;40748;53.168;5.800;2022-11-04T00:56:02;99815.99;;;11.80;91.44
54856;BME280;40748;53.168;5.800;2022-11-04T00:58:32;99818.01000000001;;;11.86;91.23
54856;BME280;40748;53.168;5.800;2022-11-04T01:01:06;99813.51;;;11.88;90.99
54856;BME280;40748;53.168;5.800;2022-11-04T01:06:02;99818.5;;;11.86;90.71
54856;BME280;40748;53.168;5.800;2022-11-04T01:08:32;99819.41;;;11.85;90.77
54856;BME280;40748;53.168;5.800;2022-11-04T01:13:32;99824.36;;;11.83;90.89
54856;BME280;40748;53.168;5.800;2022-11-04T01:16:02;99818.95;;;11.84;90.74
54856;BME280;40748;53.168;5.800;2022-11-04T01:18:32;99822.49;;;11.83;90.73
54856;BME280;40748;53.168;5.800;2022-11-04T01:21:02;99833.2;;;11.82;90.82
54856;BME280;40748;53.168;5.800;2022-11-04T01:23:32;99840.41;;;11.84;90.72
54856;BME280;40748;53.168;5.800;2022-11-04T01:26:03;99849.42;;;11.79;90.55
54856;BME280;40748;53.168;5.800;2022-11-04T01:28:32;99855.52;;;11.82;91.06
54856;BME280;40748;53.168;5.800;2022-11-04T01:31:04;99864.54;;;11.83;90.61
54856;BME280;40748;53.168;5.800;2022-11-04T01:33:32;99871.66;;;11.75;90.45
54856;BME280;40748;53.168;5.800;2022-11-04T01:36:02;99875.03;;;11.76;90.82
54856;BME280;40748;53.168;5.800;2022-11-04T01:38:32;99882.9;;;11.81;90.94
54856;BME280;40748;53.168;5.800;2022-11-04T01:41:02;99882.87;;;11.84;90.80
54856;BME280;40748;53.168;5.800;2022-11-04T01:46:02;99886.36;;;11.89;90.51
54856;BME280;40748;53.168;5.800;2022-11-04T01:48:32;99890.94;;;11.90;90.45
54856;BME280;40748;53.168;5.800;2022-11-04T01:51:02;99894.65;;;11.89;90.40
54856;BME280;40748;53.168;5.800;2022-11-04T01:53:33;99895.09000000001;;;11.88;90.32
54856;BME280;40748;53.168;5.800;2022-11-04T01:56:03;99896.11;;;11.87;90.50
54856;BME280;40748;53.168;5.800;2022-11-04T01:58:32;99902.71;;;11.85;90.53
54856;BME280;40748;53.168;5.800;2022-11-04T02:01:02;99907.61;;;11.88;90.52
54856;BME280;40748;53.168;5.800;2022-11-04T02:03:33;99911.41;;;11.84;90.34
54856;BME280;40748;53.168;5.800;2022-11-04T02:06:02;99912.89;;;11.86;90.60
54856;BME280;40748;53.168;5.800;2022-11-04T02:08:32;99918.33;;;11.82;90.53
54856;BME280;40748;53.168;5.800;2022-11-04T02:11:02;99916.04999999999;;;11.81;90.67
54856;BME280;40748;53.168;5.800;2022-11-04T02:13:32;99922.09;;;11.83;90.69
54856;BME280;40748;53.168;5.800;2022-11-04T02:16:04;99919.78;;;11.81;90.67
54856;BME280;40748;53.168;5.800;2022-11-04T02:21:08;99923.51999999999;;;11.83;90.69
54856;BME280;40748;53.168;5.800;2022-11-04T02:23:39;99925.84000000001;;;11.82;90.48
54856;BME280;40748;53.168;5.800;2022-11-04T02:26:11;99934.01;;;11.81;90.46
54856;BME280;40748;53.168;5.800;2022-11-04T02:28:36;99937.22;;;11.79;90.48
54856;BME280;40748;53.168;5.800;2022-11-04T02:31:04;99939.84;;;11.72;90.60
54856;BME280;40748;53.168;5.800;2022-11-04T02:36:02;99953.03;;;11.75;91.04
54856;BME280;40748;53.168;5.800;2022-11-04T02:38:34;99956.62;;;11.74;90.94
54856;BME280;40748;53.168;5.800;2022-11-04T02:41:05;99957.31;;;11.72;90.72
54856;BME280;40748;53.168;5.800;2022-11-04T02:43:34;99959.69;;;11.74;90.64
54856;BME280;40748;53.168;5.800;2022-11-04T02:46:03;99955.78;;;11.72;90.70
54856;BME280;40748;53.168;5.800;2022-11-04T02:48:34;99958.76;;;11.68;90.64
54856;BME280;40748;53.168;5.800;2022-11-04T02:51:02;99962.75;;;11.66;91.02
54856;BME280;40748;53.168;5.800;2022-11-04T02:53:33;99966.28;;;11.67;90.79
54856;BME280;40748;53.168;5.800;2022-11-04T02:56:02;99973.46;;;11.62;90.85
54856;BME280;40748;53.168;5.800;2022-11-04T02:58:33;99973.46;;;11.60;91.11
54856;BME280;40748;53.168;5.800;2022-11-04T03:01:02;99987.07;;;11.56;91.83
54856;BME280;40748;53.168;5.800;2022-11-04T03:03:34;99994.89;;;11.61;91.50
54856;BME280;40748;53.168;5.800;2022-11-04T03:06:03;99994.89;;;11.60;91.50
54856;BME280;40748;53.168;5.800;2022-11-04T03:08:33;100002.36;;;11.53;91.47
54856;BME280;40748;53.168;5.800;2022-11-04T03:11:02;100011.43;;;11.47;91.75
54856;BME280;40748;53.168;5.800;2022-11-04T03:13:32;100012.06;;;11.45;92.30
54856;BME280;40748;53.168;5.800;2022-11-04T03:16:02;100018.31;;;11.39;92.39
54856;BME280;40748;53.168;5.800;2022-11-04T03:21:03;100024.58;;;11.41;92.68
54856;BME280;40748;53.168;5.800;2022-11-04T03:23:32;100024.58;;;11.42;92.15
54856;BME280;40748;53.168;5.800;2022-11-04T03:26:05;100028.31;;;11.41;91.87
54856;BME280;40748;53.168;5.800;2022-11-04T03:28:34;100037.42;;;11.44;91.69
54856;BME280;40748;53.168;5.800;2022-11-04T03:31:02;100041.81999999999;;;11.43;91.40
54856;BME280;40748;53.168;5.800;2022-11-04T03:33:33;100051.2;;;11.41;91.32
54856;BME280;40748;53.168;5.800;2022-11-04T03:36:02;100058.2;;;11.38;91.37
54856;BME280;40748;53.168;5.800;2022-11-04T03:38:32;100066.24;;;11.28;91.34
54856;BME280;40748;53.168;5.800;2022-11-04T03:43:32;100082.89;;;11.25;92.05
54856;BME280;40748;53.168;5.800;2022-11-04T03:46:02;100091.52;;;11.26;92.12
54856;BME280;40748;53.168;5.800;2022-11-04T03:48:32;100094.0;;;11.25;91.98
54856;BME280;40748;53.168;5.800;2022-11-04T03:51:02;100089.67;;;11.22;91.96
54856;BME280;40748;53.168;5.800;2022-11-04T03:53:32;100088.09;;;11.24;92.11
54856;BME280;40748;53.168;5.800;2022-11-04T03:56:07;100096.13;;;11.26;92.04
54856;BME280;40748;53.168;5.800;2022-11-04T04:01:03;100106.48999999999;;;11.27;91.64
54856;BME280;40748;53.168;5.800;2022-11-04T04:03:32;100107.53;;;11.25;91.49
54856;BME280;40748;53.168;5.800;2022-11-04T04:06:03;100109.07999999999;;;11.26;91.39
54856;BME280;40748;53.168;5.800;2022-11-04T04:11:04;100120.19;;;11.25;91.09
54856;BME280;40748;53.168;5.800;2022-11-04T04:13:34;100123.6;;;11.24;91.08
54856;BME280;40748;53.168;5.800;2022-11-04T04:16:03;100128.06;;;11.23;90.90
54856;BME280;40748;53.168;5.800;2022-11-04T04:18:32;100135.82;;;11.22;90.94
54856;BME280;40748;53.168;5.800;2022-11-04T04:21:03;100149.2;;;11.23;91.00
54856;BME280;40748;53.168;5.800;2022-11-04T04:26:03;100160.19;;;11.22;91.12
54856;BME280;40748;53.168;5.800;2022-11-04T04:31:02;100166.63;;;11.18;90.95
54856;BME280;40748;53.168;5.800;2022-11-04T04:33:32;100169.43;;;11.12;91.18
54856;BME280;40748;53.168;5.800;2022-11-04T04:36:02;100173.42;;;11.11;91.39
54856;BME280;40748;53.168;5.800;2022-11-04T04:41:03;100176.78;;;11.13;91.35
54856;BME280;40748;53.168;5.800;2022-11-04T04:43:33;100190.55;;;11.14;91.07
54856;BME280;40748;53.168;5.800;2022-11-04T04:46:02;100190.55;;;11.13;91.07
54856;BME280;40748;53.168;5.800;2022-11-04T04:48:32;100191.61;;;11.10;91.03
54856;BME280;40748;53.168;5.800;2022-11-04T04:53:32;100204.81;;;11.11;90.83
54856;BME280;40748;53.168;5.800;2022-11-04T05:01:02;100213.33;;;10.98;90.57
54856;BME280;40748;53.168;5.800;2022-11-04T05:03:32;100206.64;;;11.02;91.17
54856;BME280;40748;53.168;5.800;2022-11-04T05:06:02;100211.94;;;11.04;90.87
54856;BME280;40748;53.168;5.800;2022-11-04T05:08:32;100217.62999999999;;;11.02;90.54
54856;BME280;40748;53.168;5.800;2022-11-04T05:11:02;100219.79;;;11.01;90.45
54856;BME280;40748;53.168;5.800;2022-11-04T05:13:32;100225.06;;;11.00;90.31
54856;BME280;40748;53.168;5.800;2022-11-04T05:16:02;100233.28;;;10.99;90.25
54856;BME280;40748;53.168;5.800;2022-11-04T05:18:32;100237.22;;;10.95;90.12
54856;BME280;40748;53.168;5.800;2022-11-04T05:21:02;100237.27;;;10.88;90.16
54856;BME280;40748;53.168;5.800;2022-11-04T05:23:32;100239.97;;;10.87;90.07
54856;BME280;40748;53.168;5.800;2022-11-04T05:26:02;100239.43000000001;;;10.85;90.01
54856;BME280;40748;53.168;5.800;2022-11-04T05:28:32;100241.2;;;10.80;89.97
54856;BME280;40748;53.168;5.800;2022-11-04T05:31:02;100240.83;;;10.77;89.94
54856;BME280;40748;53.168;5.800;2022-11-04T05:33:32;100243.75;;;10.74;89.86
54856;BME280;40748;53.168;5.800;2022-11-04T05:36:05;100245.61;;;10.70;89.79
54856;BME280;40748;53.168;5.800;2022-11-04T05:38:32;100255.95;;;10.68;89.83
54856;BME280;40748;53.168;5.800;2022-11-04T05:41:02;100258.51;;;10.62;89.83
54856;BME280;40748;53.168;5.800;2022-11-04T05:43:32;100261.8;;;10.60;89.83
54856;BME280;40748;53.168;5.800;2022-11-04T05:46:02;100259.82;;;10.59;89.83
54856;BME280;40748;53.168;5.800;2022-11-04T05:51:02;100263.47;;;10.61;89.88
54856;BME280;40748;53.168;5.800;2022-11-04T05:56:02;100270.81;;;10.60;89.87
54856;BME280;40748;53.168;5.800;2022-11-04T05:58:32;100272.27;;;10.61;89.93
54856;BME280;40748;53.168;5.800;2022-11-04T06:03:32;100266.45999999999;;;10.62;89.91
54856;BME280;40748;53.168;5.800;2022-11-04T06:08:32;100270.34;;;10.59;89.80
54856;BME280;40748;53.168;5.800;2022-11-04T06:11:02;100278.23;;;10.55;89.76
54856;BME280;40748;53.168;5.800;2022-11-04T06:13:32;100285.24;;;10.51;89.68
54856;BME280;40748;53.168;5.800;2022-11-04T06:16:02;100287.55;;;10.49;89.68
54856;BME280;40748;53.168;5.800;2022-11-04T06:18:32;100291.21;;;10.45;89.61
54856;BME280;40748;53.168;5.800;2022-11-04T06:21:06;100286.99;;;10.43;89.50
54856;BME280;40748;53.168;5.800;2022-11-04T06:23:32;100290.74;;;10.38;89.38
54856;BME280;40748;53.168;5.800;2022-11-04T06:26:02;100293.94;;;10.35;89.29
54856;BME280;40748;53.168;5.800;2022-11-04T06:28:32;100296.95;;;10.32;89.20
54856;BME280;40748;53.168;5.800;2022-11-04T06:31:03;100295.06;;;10.27;89.16
54856;BME280;40748;53.168;5.800;2022-11-04T06:33:32;100298.01999999999;;;10.21;89.15
54856;BME280;40748;53.168;5.800;2022-11-04T06:36:03;100302.23999999999;;;10.18;89.03
54856;BME280;40748;53.168;5.800;2022-11-04T06:38:32;100308.06;;;10.16;89.03
54856;BME280;40748;53.168;5.800;2022-11-04T06:41:02;100306.26999999999;;;10.12;88.90
54856;BME280;40748;53.168;5.800;2022-11-04T06:43:32;100302.73;;;10.08;88.82
54856;BME280;40748;53.168;5.800;2022-11-04T06:46:02;100302.71;;;10.04;88.77
54856;BME280;40748;53.168;5.800;2022-11-04T06:48:32;100304.74;;;9.99;88.70
54856;BME280;40748;53.168;5.800;2022-11-04T06:51:02;100299.59999999999;;;9.94;88.61
54856;BME280;40748;53.168;5.800;2022-11-04T06:53:32;100302.4;;;9.90;88.63
54856;BME280;40748;53.168;5.800;2022-11-04T06:56:02;100303.0;;;9.81;88.61
54856;BME280;40748;53.168;5.800;2022-11-04T06:58:32;100306.98999999999;;;9.83;88.49
54856;BME280;40748;53.168;5.800;2022-11-04T07:01:02;100315.81;;;9.78;88.65
54856;BME280;40748;53.168;5.800;2022-11-04T07:03:32;100323.46;;;9.73;88.72
54856;BME280;40748;53.168;5.800;2022-11-04T07:06:04;100334.41;;;9.64;88.87
54856;BME280;40748;53.168;5.800;2022-11-04T07:08:32;100334.41;;;9.62;88.87
54856;BME280;40748;53.168;5.800;2022-11-04T07:16:03;100355.38;;;9.59;88.79
54856;BME280;40748;53.168;5.800;2022-11-04T07:18:32;100363.12000000001;;;9.54;88.82
54856;BME280;40748;53.168;5.800;2022-11-04T07:21:02;100368.73000000001;;;9.58;88.89
54856;BME280;40748;53.168;5.800;2022-11-04T07:23:32;100376.23;;;9.55;88.84
54856;BME280;40748;53.168;5.800;2022-11-04T07:28:42;100392.3;;;9.56;88.86
54856;BME280;40748;53.168;5.800;2022-11-04T07:31:03;100392.3;;;9.55;88.86
54856;BME280;40748;53.168;5.800;2022-11-04T07:33:32;100392.48999999999;;;9.54;88.75
54856;BME280;40748;53.168;5.800;2022-11-04T07:36:02;100398.22;;;9.53;88.71
54856;BME280;40748;53.168;5.800;2022-11-04T07:38:32;100399.45;;;9.48;88.75
54856;BME280;40748;53.168;5.800;2022-11-04T07:41:02;100405.74;;;9.47;88.83
54856;BME280;40748;53.168;5.800;2022-11-04T07:46:03;100406.91;;;9.49;88.76
54856;BME280;40748;53.168;5.800;2022-11-04T07:48:32;100411.56999999999;;;9.48;88.72
54856;BME280;40748;53.168;5.800;2022-11-04T07:51:02;100420.43;;;9.47;88.90
54856;BME280;40748;53.168;5.800;2022-11-04T07:53:32;100429.74;;;9.45;89.12
54856;BME280;40748;53.168;5.800;2022-11-04T07:56:02;100445.5;;;9.48;89.76
54856;BME280;40748;53.168;5.800;2022-11-04T07:58:32;100445.5;;;9.53;89.76
54856;BME280;40748;53.168;5.800;2022-11-04T08:01:03;100449.47;;;9.62;90.02
54856;BME280;40748;53.168;5.800;2022-11-04T08:03:32;100451.95;;;9.67;89.97
54856;BME280;40748;53.168;5.800;2022-11-04T08:06:03;100455.8;;;9.74;90.44
54856;BME280;40748;53.168;5.800;2022-11-04T08:08:32;100462.73;;;9.78;90.68
54856;BME280;40748;53.168;5.800;2022-11-04T08:11:03;100464.85;;;9.80;90.70
54856;BME280;40748;53.168;5.800;2022-11-04T08:13:33;100469.06;;;9.83;90.78
54856;BME280;40748;53.168;5.800;2022-11-04T08:16:03;100469.18;;;9.89;90.77
54856;BME280;40748;53.168;5.800;2022-11-04T08:18:32;100472.63;;;9.93;90.93
54856;BME280;40748;53.168;5.800;2022-11-04T08:21:02;100479.22;;;9.96;90.70
54856;BME280;40748;53.168;5.800;2022-11-04T08:23:32;100480.33;;;10.04;90.87
54856;BME280;40748;53.168;5.800;2022-11-04T08:26:05;100480.04;;;10.10;90.90
54856;BME280;40748;53.168;5.800;2022-11-04T08:28:32;100485.19;;;10.21;91.08
54856;BME280;40748;53.168;5.800;2022-11-04T08:31:03;100487.42;;;10.35;91.46
54856;BME280;40748;53.168;5.800;2022-11-04T08:33:32;100489.79000000001;;;10.52;91.96
54856;BME280;40748;53.168;5.800;2022-11-04T08:36:03;100486.73999999999;;;10.68;92.39
54856;BME280;40748;53.168;5.800;2022-11-04T08:38:32;100489.92;;;10.87;92.79
54856;BME280;40748;53.168;5.800;2022-11-04T08:41:02;100481.26999999999;;;11.02;92.83
54856;BME280;40748;53.168;5.800;2022-11-04T08:43:32;100488.0;;;11.15;92.98
54856;BME280;40748;53.168;5.800;2022-11-04T08:46:03;100492.08;;;11.24;92.57
54856;BME280;40748;53.168;5.800;2022-11-04T08:48:32;100496.84999999999;;;11.31;92.33
54856;BME280;40748;53.168;5.800;2022-11-04T08:51:03;100495.65;;;11.32;91.82
54856;BME280;40748;53.168;5.800;2022-11-04T08:56:08;100505.83;;;11.33;91.54
54856;BME280;40748;53.168;5.800;2022-11-04T08:58:32;100502.97;;;11.35;91.39
54856;BME280;40748;53.168;5.800;2022-11-04T09:01:02;100505.97;;;11.36;90.89
54856;BME280;40748;53.168;5.800;2022-11-04T09:06:02;100507.03;;;11.32;90.63
54856;BME280;40748;53.168;5.800;2022-11-04T09:08:32;100512.37999999999;;;11.33;90.61
54856;BME280;40748;53.168;5.800;2022-11-04T09:11:05;100509.12;;;11.32;90.51
54856;BME280;40748;53.168;5.800;2022-11-04T09:13:32;100515.59999999999;;;11.36;90.59
54856;BME280;40748;53.168;5.800;2022-11-04T09:16:02;100517.01000000001;;;11.43;90.79
54856;BME280;40748;53.168;5.800;2022-11-04T09:18:32;100528.67;;;11.53;91.26
54856;BME280;40748;53.168;5.800;2022-11-04T09:23:32;100530.58;;;11.70;91.88
54856;BME280;40748;53.168;5.800;2022-11-04T09:26:03;100529.96;;;11.79;92.09
54856;BME280;40748;53.168;5.800;2022-11-04T09:28:32;100527.75;;;11.86;91.90
54856;BME280;40748;53.168;5.800;2022-11-04T09:31:03;100528.76;;;11.89;91.70
54856;BME280;40748;53.168;5.800;2022-11-04T09:33:32;100521.55;;;11.94;91.71
54856;BME280;40748;53.168;5.800;2022-11-04T09:36:02;100522.09;;;11.97;91.45
54856;BME280;40748;53.168;5.800;2022-11-04T09:38:32;100525.3;;;11.99;91.40
54856;BME280;40748;53.168;5.800;2022-11-04T09:41:07;100537.32;;;12.07;91.54
54856;BME280;40748;53.168;5.800;2022-11-04T09:43:36;100539.43000000001;;;12.12;91.65
54856;BME280;40748;53.168;5.800;2022-11-04T09:46:02;100556.37000000001;;;12.26;92.63
54856;BME280;40748;53.168;5.800;2022-11-04T09:48:33;100556.37000000001;;;12.39;92.63
54856;BME280;40748;53.168;5.800;2022-11-04T09:51:02;100569.04;;;12.62;93.45
54856;BME280;40748;53.168;5.800;2022-11-04T09:53:35;100582.2;;;12.79;93.48
54856;BME280;40748;53.168;5.800;2022-11-04T09:56:02;100593.39;;;12.89;92.92
54856;BME280;40748;53.168;5.800;2022-11-04T10:01:04;100588.81;;;12.84;91.10
54856;BME280;40748;53.168;5.800;2022-11-04T10:03:38;100591.36;;;12.77;90.34
54856;BME280;40748;53.168;5.800;2022-11-04T10:06:06;100587.39;;;12.65;89.90
54856;BME280;40748;53.168;5.800;2022-11-04T10:08:37;100591.39;;;12.59;89.13
54856;BME280;40748;53.168;5.800;2022-11-04T10:11:03;100587.78;;;12.53;89.20
54856;BME280;40748;53.168;5.800;2022-11-04T10:13:36;100586.41;;;12.47;88.99
54856;BME280;40748;53.168;5.800;2022-11-04T10:16:05;100589.20000000001;;;12.41;88.97
54856;BME280;40748;53.168;5.800;2022-11-04T10:18:36;100591.12;;;12.38;89.02
54856;BME280;40748;53.168;5.800;2022-11-04T10:21:03;100597.27;;;12.36;89.00
54856;BME280;40748;53.168;5.800;2022-11-04T10:26:04;100607.2;;;12.34;88.93
54856;BME280;40748;53.168;5.800;2022-11-04T10:28:33;100611.97;;;12.32;88.78
54856;BME280;40748;53.168;5.800;2022-11-04T10:31:02;100615.91;;;12.30;88.73
54856;BME280;40748;53.168;5.800;2022-11-04T10:33:33;100629.83;;;12.31;88.74
54856;BME280;40748;53.168;5.800;2022-11-04T10:36:03;100629.83;;;12.35;89.13
54856;BME280;40748;53.168;5.800;2022-11-04T10:38:32;100634.78;;;12.51;89.94
54856;BME280;40748;53.168;5.800;2022-11-04T10:41:04;100644.83;;;12.64;90.08
54856;BME280;40748;53.168;5.800;2022-11-04T10:43:33;100657.83;;;12.72;89.87
54856;BME280;40748;53.168;5.800;2022-11-04T10:46:07;100657.7;;;12.77;89.83
54856;BME280;40748;53.168;5.800;2022-11-04T10:48:34;100659.93;;;12.82;89.68
54856;BME280;40748;53.168;5.800;2022-11-04T10:51:02;100664.53;;;12.87;89.51
54856;BME280;40748;53.168;5.800;2022-11-04T10:53:32;100668.11;;;12.88;89.19
54856;BME280;40748;53.168;5.800;2022-11-04T10:56:03;100671.36;;;12.87;88.99
54856;BME280;40748;53.168;5.800;2022-11-04T10:58:33;100669.87000000001;;;12.88;88.74
54856;BME280;40748;53.168;5.800;2022-11-04T11:01:20;100666.97;;;12.89;88.83
54856;BME280;40748;53.168;5.800;2022-11-04T11:03:33;100663.94;;;12.92;88.82
54856;BME280;40748;53.168;5.800;2022-11-04T11:06:10;100664.43000000001;;;13.04;88.80
54856;BME280;40748;53.168;5.800;2022-11-04T11:08:32;100664.92;;;13.34;89.83
54856;BME280;40748;53.168;5.800;2022-11-04T11:11:02;100665.64;;;13.85;91.79
54856;BME280;40748;53.168;5.800;2022-11-04T11:13:33;100672.91;;;14.47;93.93
54856;BME280;40748;53.168;5.800;2022-11-04T11:16:05;100671.12;;;15.20;93.74
54856;BME280;40748;53.168;5.800;2022-11-04T11:18:32;100673.46;;;16.05;95.27
54856;BME280;40748;53.168;5.800;2022-11-04T11:21:03;100675.01999999999;;;16.74;95.51
54856;BME280;40748;53.168;5.800;2022-11-04T11:23:34;100683.92;;;17.17;94.84
54856;BME280;40748;53.168;5.800;2022-11-04T11:26:02;100689.86;;;17.30;92.35
54856;BME280;40748;53.168;5.800;2022-11-04T11:28:32;100695.28;;;17.24;89.49
54856;BME280;40748;53.168;5.800;2022-11-04T11:31:03;100694.78;;;17.06;87.63
54856;BME280;40748;53.168;5.800;2022-11-04T11:33:33;100697.6;;;16.97;85.79
54856;BME280;40748;53.168;5.800;2022-11-04T11:36:03;100700.56;;;17.05;85.76
54856;BME280;40748;53.168;5.800;2022-11-04T11:38:32;100705.42;;;17.34;85.92
54856;BME280;40748;53.168;5.800;2022-11-04T11:41:04;100707.17;;;17.80;87.11
54856;BME280;40748;53.168;5.800;2022-11-04T11:43:33;100713.99;;;18.29;88.49
54856;BME280;40748;53.168;5.800;2022-11-04T11:46:02;100719.81;;;18.46;87.86
54856;BME280;40748;53.168;5.800;2022-11-04T11:48:37;100716.49;;;18.33;85.46
54856;BME280;40748;53.168;5.800;2022-11-04T11:51:03;100723.71;;;18.06;82.56
54856;BME280;40748;53.168;5.800;2022-11-04T11:53:32;100717.48999999999;;;17.75;80.99
54856;BME280;40748;53.168;5.800;2022-11-04T11:56:05;100710.14;;;17.57;79.59
54856;BME280;40748;53.168;5.800;2022-11-04T11:58:34;100712.21;;;17.56;80.21
54856;BME280;40748;53.168;5.800;2022-11-04T12:01:03;100712.32;;;17.67;81.08
54856;BME280;40748;53.168;5.800;2022-11-04T12:03:33;100706.52;;;17.63;80.77
54856;BME280;40748;53.168;5.800;2022-11-04T12:06:07;100710.94;;;17.49;79.03
54856;BME280;40748;53.168;5.800;2022-11-04T12:08:36;100710.94;;;17.40;79.03
54856;BME280;40748;53.168;5.800;2022-11-04T12:13:35;100714.29000000001;;;17.38;79.28
54856;BME280;40748;53.168;5.800;2022-11-04T12:16:07;100716.06;;;17.26;78.83
54856;BME280;40748;53.168;5.800;2022-11-04T12:18:38;100719.06;;;17.05;78.06
54856;BME280;40748;53.168;5.800;2022-11-04T12:21:03;100719.12999999999;;;16.81;77.35
54856;BME280;40748;53.168;5.800;2022-11-04T12:23:35;100725.95;;;16.61;76.90
54856;BME280;40748;53.168;5.800;2022-11-04T12:26:07;100731.23000000001;;;16.65;76.81
54856;BME280;40748;53.168;5.800;2022-11-04T12:28:35;100730.66;;;16.87;78.38
54856;BME280;40748;53.168;5.800;2022-11-04T12:31:06;100730.16;;;16.91;78.93
54856;BME280;40748;53.168;5.800;2022-11-04T12:33:34;100729.08;;;16.92;76.08
54856;BME280;40748;53.168;5.800;2022-11-04T12:36:06;100731.6;;;17.14;78.27
54856;BME280;40748;53.168;5.800;2022-11-04T12:38:36;100737.12000000001;;;17.59;79.56
54856;BME280;40748;53.168;5.800;2022-11-04T13:13:23;100763.86;;;20.96;66.90
54856;BME280;40748;53.168;5.800;2022-11-04T13:13:28;100763.67;;;21.02;69.84
54856;BME280;40748;53.168;5.800;2022-11-04T13:15:57;100763.67;;;21.23;69.84
54856;BME280;40748;53.168;5.800;2022-11-04T13:18:27;100767.1;;;20.88;70.40
54856;BME280;40748;53.168;5.800;2022-11-04T13:20:57;100769.28;;;21.19;67.96
54856;BME280;40748;53.168;5.800;2022-11-04T13:23:27;100765.67;;;21.24;69.12
54856;BME280;40748;53.168;5.800;2022-11-04T13:25:57;100767.64;;;21.10;67.27
54856;BME280;40748;53.168;5.800;2022-11-04T13:28:26;100773.27;;;20.94;66.94
54856;BME280;40748;53.168;5.800;2022-11-04T13:30:59;100777.73;;;20.92;66.02
54856;BME280;40748;53.168;5.800;2022-11-04T13:33:28;100783.37;;;20.61;66.71
54856;BME280;40748;53.168;5.800;2022-11-04T13:35:58;100785.56999999999;;;20.03;60.03
54856;BME280;40748;53.168;5.800;2022-11-04T13:38:27;100801.39;;;19.79;63.52
54856;BME280;40748;53.168;5.800;2022-11-04T13:40:59;100801.39;;;19.55;63.52
54856;BME280;40748;53.168;5.800;2022-11-04T13:43:26;100804.94;;;19.30;64.06
54856;BME280;40748;53.168;5.800;2022-11-04T13:50:58;100806.34;;;19.42;65.60
54856;BME280;40748;53.168;5.800;2022-11-04T13:55:56;100811.17;;;19.61;65.80
54856;BME280;40748;53.168;5.800;2022-11-04T13:58:26;100815.28;;;19.70;65.92
54856;BME280;40748;53.168;5.800;2022-11-04T14:01:08;100821.31000000001;;;19.67;65.78
54856;BME280;40748;53.168;5.800;2022-11-04T14:06:00;100831.7;;;19.26;62.38
54856;BME280;40748;53.168;5.800;2022-11-04T14:08:26;100838.83;;;18.91;62.47
54856;BME280;40748;53.168;5.800;2022-11-04T14:10:59;100836.83;;;18.46;61.76
54856;BME280;40748;53.168;5.800;2022-11-04T14:15:57;100841.35;;;18.05;60.83
54856;BME280;40748;53.168;5.800;2022-11-04T14:18:28;100844.98;;;17.84;60.72
54856;BME280;40748;53.168;5.800;2022-11-04T14:21:00;100844.98;;;17.63;60.72
54856;BME280;40748;53.168;5.800;2022-11-04T14:23:26;100856.94;;;17.41;60.94
54856;BME280;40748;53.168;5.800;2022-11-04T14:25:57;100858.2;;;17.22;61.25
54856;BME280;40748;53.168;5.800;2022-11-04T14:28:27;100864.26;;;17.08;61.54
54856;BME280;40748;53.168;5.800;2022-11-04T14:30:56;100860.62;;;16.87;61.95
54856;BME280;40748;53.168;5.800;2022-11-04T14:33:31;100866.95999999999;;;16.71;61.90
54856;BME280;40748;53.168;5.800;2022-11-04T14:35:57;100864.84;;;16.54;62.13
54856;BME280;40748;53.168;5.800;2022-11-04T14:38:27;100864.25;;;16.38;62.23
54856;BME280;40748;53.168;5.800;2022-11-04T14:43:29;100871.44;;;15.98;62.83
54856;BME280;40748;53.168;5.800;2022-11-04T14:45:57;100875.78;;;15.92;63.06
54856;BME280;40748;53.168;5.800;2022-11-04T14:48:27;100880.12999999999;;;15.64;63.29
54856;BME280;40748;53.168;5.800;2022-11-04T14:50:56;100881.78;;;15.53;63.68
54856;BME280;40748;53.168;5.800;2022-11-04T14:53:27;100885.25;;;15.38;63.87